sensor_id;sensor_type;location;lat;lon;timestamp;pressure;altitude;pressure_sealevel;temperature;humidity
7441;BME280;29616;51.950;8.572;2023-07-31T00:00:30;99528.19;;;16.34;100.00
7441;BME280;29616;51.950;8.572;2023-07-31T00:02:58;99505.88;;;16.23;100.00
7441;BME280;29616;51.950;8.572;2023-07-31T00:05:27;99505.88;;;16.29;100.00
7441;BME280;29616;51.950;8.572;2023-07-31T00:07:55;99506.78;;;16.36;100.00
7441;BME280;29616;51.950;8.572;2023-07-31T00:10:26;99503.34;;;16.28;100.00
7441;BME280;29616;51.950;8.572;2023-07-31T00:12:54;99502.28;;;16.29;100.00
7441;BME280;29616;51.950;8.572;2023-07-31T00:15:24;99498.72;;;16.35;100.00
7441;BME280;29616;51.950;8.572;2023-07-31T00:17:53;99486.41;;;16.31;100.00
7441;BME280;29616;51.950;8.572;2023-07-31T00:20:23;99493.41;;;16.33;100.00
7441;BME280;29616;51.950;8.572;2023-07-31T00:22:52;99491.69;;;16.32;100.00
7441;BME280;29616;51.950;8.572;2023-07-31T00:25:20;99489.16;;;16.37;100.00
7441;BME280;29616;51.950;8.572;2023-07-31T00:27:49;99488.06;;;16.32;100.00
7441;BME280;29616;51.950;8.572;2023-07-31T00:30:17;99484.28;;;16.33;100.00
7441;BME280;29616;51.950;8.572;2023-07-31T00:32:46;99462.00;;;16.28;100.00
7441;BME280;29616;51.950;8.572;2023-07-31T00:35:16;99487.91;;;16.40;100.00
7441;BME280;29616;51.950;8.572;2023-07-31T00:37:45;99472.78;;;16.23;100.00
7441;BME280;29616;51.950;8.572;2023-07-31T00:40:14;99484.97;;;16.42;100.00
7441;BME280;29616;51.950;8.572;2023-07-31T00:42:42;99465.16;;;16.31;100.00
7441;BME280;29616;51.950;8.572;2023-07-31T00:45:11;99484.72;;;16.36;100.00
7441;BME280;29616;51.950;8.572;2023-07-31T00:47:39;99487.72;;;16.42;100.00
7441;BME280;29616;51.950;8.572;2023-07-31T00:50:09;99473.06;;;16.41;100.00
7441;BME280;29616;51.950;8.572;2023-07-31T00:52:39;99477.09;;;16.45;100.00
7441;BME280;29616;51.950;8.572;2023-07-31T00:55:08;99469.00;;;16.37;100.00
7441;BME280;29616;51.950;8.572;2023-07-31T00:57:37;99473.09;;;16.48;100.00
7441;BME280;29616;51.950;8.572;2023-07-31T01:00:08;99482.63;;;16.45;100.00
7441;BME280;29616;51.950;8.572;2023-07-31T01:02:37;99467.97;;;16.38;100.00
7441;BME280;29616;51.950;8.572;2023-07-31T01:05:06;99438.22;;;16.27;100.00
7441;BME280;29616;51.950;8.572;2023-07-31T01:07:42;99471.59;;;16.45;100.00
7441;BME280;29616;51.950;8.572;2023-07-31T01:10:19;99465.00;;;16.39;100.00
7441;BME280;29616;51.950;8.572;2023-07-31T01:12:51;99464.41;;;16.44;100.00
7441;BME280;29616;51.950;8.572;2023-07-31T01:15:21;99461.41;;;16.39;100.00
7441;BME280;29616;51.950;8.572;2023-07-31T01:17:49;99470.78;;;16.45;100.00
7441;BME280;29616;51.950;8.572;2023-07-31T01:20:22;99469.00;;;16.37;100.00
7441;BME280;29616;51.950;8.572;2023-07-31T01:23:16;99460.91;;;16.29;100.00
7441;BME280;29616;51.950;8.572;2023-07-31T01:26:00;99461.09;;;16.21;100.00
7441;BME280;29616;51.950;8.572;2023-07-31T01:28:53;99462.78;;;16.22;100.00
7441;BME280;29616;51.950;8.572;2023-07-31T01:31:25;99479.91;;;16.11;100.00
7441;BME280;29616;51.950;8.572;2023-07-31T01:33:59;99476.88;;;15.99;100.00
7441;BME280;29616;51.950;8.572;2023-07-31T01:36:28;99440.44;;;15.69;100.00
7441;BME280;29616;51.950;8.572;2023-07-31T01:38:58;99471.22;;;15.80;100.00
7441;BME280;29616;51.950;8.572;2023-07-31T01:41:29;99460.75;;;15.68;100.00
7441;BME280;29616;51.950;8.572;2023-07-31T01:43:58;99466.38;;;15.54;100.00
7441;BME280;29616;51.950;8.572;2023-07-31T01:46:27;99456.88;;;15.56;100.00
7441;BME280;29616;51.950;8.572;2023-07-31T01:48:56;99447.31;;;15.31;100.00
7441;BME280;29616;51.950;8.572;2023-07-31T01:51:24;99449.59;;;15.28;100.00
7441;BME280;29616;51.950;8.572;2023-07-31T01:53:53;99449.41;;;15.29;100.00
7441;BME280;29616;51.950;8.572;2023-07-31T01:56:21;99433.63;;;15.16;100.00
7441;BME280;29616;51.950;8.572;2023-07-31T01:58:51;99443.44;;;15.26;100.00
7441;BME280;29616;51.950;8.572;2023-07-31T02:01:20;99436.69;;;15.28;100.00
7441;BME280;29616;51.950;8.572;2023-07-31T02:03:49;99440.25;;;15.22;100.00
7441;BME280;29616;51.950;8.572;2023-07-31T02:06:18;99430.28;;;15.21;100.00
7441;BME280;29616;51.950;8.572;2023-07-31T02:08:47;99433.94;;;15.28;100.00
7441;BME280;29616;51.950;8.572;2023-07-31T02:11:15;99428.03;;;15.31;100.00
7441;BME280;29616;51.950;8.572;2023-07-31T02:13:44;99422.59;;;15.38;100.00
7441;BME280;29616;51.950;8.572;2023-07-31T02:16:14;99416.13;;;15.24;100.00
7441;BME280;29616;51.950;8.572;2023-07-31T02:18:42;99423.16;;;15.33;100.00
7441;BME280;29616;51.950;8.572;2023-07-31T02:21:12;99408.44;;;15.19;100.00
7441;BME280;29616;51.950;8.572;2023-07-31T02:23:41;99410.56;;;15.17;100.00
7441;BME280;29616;51.950;8.572;2023-07-31T02:26:09;99408.00;;;15.16;100.00
7441;BME280;29616;51.950;8.572;2023-07-31T02:28:38;99409.13;;;15.22;100.00
7441;BME280;29616;51.950;8.572;2023-07-31T02:31:13;99411.00;;;15.21;100.00
7441;BME280;29616;51.950;8.572;2023-07-31T02:33:42;99410.63;;;15.24;100.00
7441;BME280;29616;51.950;8.572;2023-07-31T02:36:10;99405.50;;;15.21;100.00
7441;BME280;29616;51.950;8.572;2023-07-31T02:38:39;99411.00;;;15.21;100.00
7441;BME280;29616;51.950;8.572;2023-07-31T02:41:08;99402.91;;;15.13;100.00
7441;BME280;29616;51.950;8.572;2023-07-31T02:43:36;99408.00;;;15.16;100.00
7441;BME280;29616;51.950;8.572;2023-07-31T02:46:05;99411.16;;;15.13;100.00
7441;BME280;29616;51.950;8.572;2023-07-31T02:48:35;99389.78;;;15.15;100.00
7441;BME280;29616;51.950;8.572;2023-07-31T02:51:03;99399.13;;;15.14;100.00
7441;BME280;29616;51.950;8.572;2023-07-31T02:53:32;99391.38;;;15.03;100.00
7441;BME280;29616;51.950;8.572;2023-07-31T02:56:00;99393.31;;;15.09;100.00
7441;BME280;29616;51.950;8.572;2023-07-31T02:58:29;99394.56;;;15.06;100.00
7441;BME280;29616;51.950;8.572;2023-07-31T03:00:58;99392.94;;;15.12;100.00
7441;BME280;29616;51.950;8.572;2023-07-31T03:03:27;99377.50;;;15.11;100.00
7441;BME280;29616;51.950;8.572;2023-07-31T03:06:02;99390.63;;;15.15;100.00
7441;BME280;29616;51.950;8.572;2023-07-31T03:08:31;99385.22;;;15.22;100.00
7441;BME280;29616;51.950;8.572;2023-07-31T03:11:00;99390.28;;;15.25;100.00
7441;BME280;29616;51.950;8.572;2023-07-31T03:13:28;99388.84;;;15.29;100.00
7441;BME280;29616;51.950;8.572;2023-07-31T03:15:57;99383.59;;;15.34;100.00
7441;BME280;29616;51.950;8.572;2023-07-31T03:18:27;99391.78;;;15.49;100.00
7441;BME280;29616;51.950;8.572;2023-07-31T03:20:55;99386.72;;;15.52;100.00
7441;BME280;29616;51.950;8.572;2023-07-31T03:23:25;99374.91;;;15.65;100.00
7441;BME280;29616;51.950;8.572;2023-07-31T03:25:58;99375.78;;;15.65;100.00
7441;BME280;29616;51.950;8.572;2023-07-31T03:28:28;99390.69;;;15.77;100.00
7441;BME280;29616;51.950;8.572;2023-07-31T03:30:57;99370.56;;;15.84;100.00
7441;BME280;29616;51.950;8.572;2023-07-31T03:33:26;99386.13;;;15.98;100.00
7441;BME280;29616;51.950;8.572;2023-07-31T03:35:56;99386.38;;;16.03;100.00
7441;BME280;29616;51.950;8.572;2023-07-31T03:38:26;99388.53;;;16.14;100.00
7441;BME280;29616;51.950;8.572;2023-07-31T03:40:55;99377.28;;;16.15;100.00
7441;BME280;29616;51.950;8.572;2023-07-31T03:43:23;99391.34;;;16.20;100.00
7441;BME280;29616;51.950;8.572;2023-07-31T03:45:52;99380.72;;;16.24;100.00
7441;BME280;29616;51.950;8.572;2023-07-31T03:48:20;99384.16;;;16.32;100.00
7441;BME280;29616;51.950;8.572;2023-07-31T03:50:49;99387.56;;;16.28;100.00
7441;BME280;29616;51.950;8.572;2023-07-31T03:53:17;99382.91;;;16.35;100.00
7441;BME280;29616;51.950;8.572;2023-07-31T03:55:47;99376.13;;;16.31;100.00
7441;BME280;29616;51.950;8.572;2023-07-31T03:58:15;99380.13;;;16.35;100.00
7441;BME280;29616;51.950;8.572;2023-07-31T04:00:45;99378.69;;;16.39;100.00
7441;BME280;29616;51.950;8.572;2023-07-31T04:03:14;99372.91;;;16.27;100.00
7441;BME280;29616;51.950;8.572;2023-07-31T04:05:42;99385.44;;;16.30;100.00
7441;BME280;29616;51.950;8.572;2023-07-31T04:08:11;99381.00;;;16.35;100.00
7441;BME280;29616;51.950;8.572;2023-07-31T04:10:40;99387.78;;;16.33;100.00
7441;BME280;29616;51.950;8.572;2023-07-31T04:13:10;99388.41;;;16.28;100.00
7441;BME280;29616;51.950;8.572;2023-07-31T04:15:39;99388.63;;;16.33;100.00
7441;BME280;29616;51.950;8.572;2023-07-31T04:18:09;99385.66;;;16.35;100.00
7441;BME280;29616;51.950;8.572;2023-07-31T04:20:37;99374.00;;;16.33;100.00
7441;BME280;29616;51.950;8.572;2023-07-31T04:23:07;99393.09;;;16.41;100.00
7441;BME280;29616;51.950;8.572;2023-07-31T04:25:35;99375.66;;;16.34;100.00
7441;BME280;29616;51.950;8.572;2023-07-31T04:28:04;99373.59;;;16.43;100.00
7441;BME280;29616;51.950;8.572;2023-07-31T04:30:34;99392.22;;;16.34;100.00
7441;BME280;29616;51.950;8.572;2023-07-31T04:33:03;99391.34;;;16.27;100.00
7441;BME280;29616;51.950;8.572;2023-07-31T04:35:32;99373.31;;;16.18;100.00
7441;BME280;29616;51.950;8.572;2023-07-31T04:38:00;99386.25;;;16.24;100.00
7441;BME280;29616;51.950;8.572;2023-07-31T04:40:29;99388.81;;;16.32;100.00
7441;BME280;29616;51.950;8.572;2023-07-31T04:42:57;99390.13;;;16.36;100.00
7441;BME280;29616;51.950;8.572;2023-07-31T04:45:26;99377.56;;;16.27;100.00
7441;BME280;29616;51.950;8.572;2023-07-31T04:47:55;99390.94;;;16.30;100.00
7441;BME280;29616;51.950;8.572;2023-07-31T04:50:24;99381.19;;;16.27;100.00
7441;BME280;29616;51.950;8.572;2023-07-31T04:52:53;99375.88;;;16.26;100.00
7441;BME280;29616;51.950;8.572;2023-07-31T04:55:21;99378.25;;;16.42;100.00
7441;BME280;29616;51.950;8.572;2023-07-31T04:57:50;99371.41;;;16.31;100.00
7441;BME280;29616;51.950;8.572;2023-07-31T05:00:18;99373.53;;;16.29;100.00
7441;BME280;29616;51.950;8.572;2023-07-31T05:02:47;99381.63;;;16.37;100.00
7441;BME280;29616;51.950;8.572;2023-07-31T05:05:17;99366.13;;;16.30;100.00
7441;BME280;29616;51.950;8.572;2023-07-31T05:07:45;99360.38;;;16.25;100.00
7441;BME280;29616;51.950;8.572;2023-07-31T05:10:14;99378.66;;;16.32;100.00
7441;BME280;29616;51.950;8.572;2023-07-31T05:12:43;99377.78;;;16.32;100.00
7441;BME280;29616;51.950;8.572;2023-07-31T05:15:11;99387.97;;;16.31;100.00
7441;BME280;29616;51.950;8.572;2023-07-31T05:17:40;99383.72;;;16.29;100.00
7441;BME280;29616;51.950;8.572;2023-07-31T05:20:09;99386.50;;;16.42;100.00
7441;BME280;29616;51.950;8.572;2023-07-31T05:22:39;99366.56;;;16.40;100.00
7441;BME280;29616;51.950;8.572;2023-07-31T05:25:08;99368.97;;;16.50;100.00
7441;BME280;29616;51.950;8.572;2023-07-31T05:27:37;99376.56;;;16.48;100.00
7441;BME280;29616;51.950;8.572;2023-07-31T05:30:07;99364.91;;;16.46;100.00
7441;BME280;29616;51.950;8.572;2023-07-31T05:32:36;99377.88;;;16.52;100.00
7441;BME280;29616;51.950;8.572;2023-07-31T05:35:05;99364.44;;;16.42;100.00
7441;BME280;29616;51.950;8.572;2023-07-31T05:37:34;99378.50;;;16.47;100.00
7441;BME280;29616;51.950;8.572;2023-07-31T05:40:05;99374.06;;;16.53;100.00
7441;BME280;29616;51.950;8.572;2023-07-31T05:42:34;99379.94;;;16.43;100.00
7441;BME280;29616;51.950;8.572;2023-07-31T05:45:09;99379.56;;;16.53;100.00
7441;BME280;29616;51.950;8.572;2023-07-31T05:47:38;99378.97;;;16.57;100.00
7441;BME280;29616;51.950;8.572;2023-07-31T05:50:07;99378.72;;;16.52;100.00
7441;BME280;29616;51.950;8.572;2023-07-31T05:52:36;99378.56;;;16.60;100.00
7441;BME280;29616;51.950;8.572;2023-07-31T05:55:07;99371.31;;;16.53;100.00
7441;BME280;29616;51.950;8.572;2023-07-31T05:57:36;99365.53;;;16.48;100.00
7441;BME280;29616;51.950;8.572;2023-07-31T06:00:06;99371.09;;;16.61;100.00
7441;BME280;29616;51.950;8.572;2023-07-31T06:02:35;99370.28;;;16.67;100.00
7441;BME280;29616;51.950;8.572;2023-07-31T06:05:05;99367.31;;;16.62;100.00
7441;BME280;29616;51.950;8.572;2023-07-31T06:07:34;99367.56;;;16.73;100.00
7441;BME280;29616;51.950;8.572;2023-07-31T06:10:04;99358.44;;;16.86;100.00
7441;BME280;29616;51.950;8.572;2023-07-31T06:12:35;99358.63;;;16.78;100.00
7441;BME280;29616;51.950;8.572;2023-07-31T06:15:05;99365.03;;;16.91;100.00
7441;BME280;29616;51.950;8.572;2023-07-31T06:17:34;99375.84;;;16.86;100.00
7441;BME280;29616;51.950;8.572;2023-07-31T06:20:03;99374.75;;;16.87;100.00
7441;BME280;29616;51.950;8.572;2023-07-31T06:22:33;99360.56;;;16.84;100.00
7441;BME280;29616;51.950;8.572;2023-07-31T06:25:01;99363.50;;;16.82;100.00
7441;BME280;29616;51.950;8.572;2023-07-31T06:27:30;99369.03;;;16.95;100.00
7441;BME280;29616;51.950;8.572;2023-07-31T06:30:00;99344.59;;;16.79;100.00
7441;BME280;29616;51.950;8.572;2023-07-31T06:32:30;99369.91;;;17.03;100.00
7441;BME280;29616;51.950;8.572;2023-07-31T06:34:58;99369.03;;;17.09;100.00
7441;BME280;29616;51.950;8.572;2023-07-31T06:37:27;99366.53;;;17.14;100.00
7441;BME280;29616;51.950;8.572;2023-07-31T06:39:55;99360.97;;;17.01;100.00
7441;BME280;29616;51.950;8.572;2023-07-31T06:42:24;99352.06;;;16.85;100.00
7441;BME280;29616;51.950;8.572;2023-07-31T06:44:53;99351.84;;;16.93;100.00
7441;BME280;29616;51.950;8.572;2023-07-31T06:47:22;99344.22;;;16.89;100.00
7441;BME280;29616;51.950;8.572;2023-07-31T06:49:51;99339.31;;;16.91;100.00
7441;BME280;29616;51.950;8.572;2023-07-31T06:52:19;99331.69;;;17.00;100.00
7441;BME280;29616;51.950;8.572;2023-07-31T06:55:01;99335.94;;;17.02;100.00
7441;BME280;29616;51.950;8.572;2023-07-31T06:57:31;99340.81;;;17.13;100.00
7441;BME280;29616;51.950;8.572;2023-07-31T07:00:00;99340.81;;;17.20;100.00
7441;BME280;29616;51.950;8.572;2023-07-31T07:02:30;99342.72;;;17.13;100.00
7441;BME280;29616;51.950;8.572;2023-07-31T07:04:59;99349.09;;;17.20;100.00
7441;BME280;29616;51.950;8.572;2023-07-31T07:07:28;99338.25;;;17.25;100.00
7441;BME280;29616;51.950;8.572;2023-07-31T07:09:56;99341.88;;;17.32;100.00
7441;BME280;29616;51.950;8.572;2023-07-31T07:12:27;99342.28;;;17.42;100.00
7441;BME280;29616;51.950;8.572;2023-07-31T07:14:56;99325.28;;;17.38;100.00
7441;BME280;29616;51.950;8.572;2023-07-31T07:17:25;99337.19;;;17.32;100.00
7441;BME280;29616;51.950;8.572;2023-07-31T07:19:56;99342.09;;;17.24;100.00
7441;BME280;29616;51.950;8.572;2023-07-31T07:22:24;99345.06;;;17.29;100.00
7441;BME280;29616;51.950;8.572;2023-07-31T07:24:53;99332.09;;;17.10;100.00
7441;BME280;29616;51.950;8.572;2023-07-31T07:27:22;99357.38;;;17.20;100.00
7441;BME280;29616;51.950;8.572;2023-07-31T07:29:51;99348.69;;;17.16;100.00
7441;BME280;29616;51.950;8.572;2023-07-31T07:32:21;99348.25;;;17.13;100.00
7441;BME280;29616;51.950;8.572;2023-07-31T07:34:50;99353.53;;;17.14;100.00
7441;BME280;29616;51.950;8.572;2023-07-31T07:37:20;99354.59;;;17.20;100.00
7441;BME280;29616;51.950;8.572;2023-07-31T07:39:48;99363.31;;;17.04;100.00
7441;BME280;29616;51.950;8.572;2023-07-31T07:42:17;99369.91;;;17.03;100.00
7441;BME280;29616;51.950;8.572;2023-07-31T07:44:46;99364.16;;;17.04;100.00
7441;BME280;29616;51.950;8.572;2023-07-31T07:47:15;99352.91;;;16.86;100.00
7441;BME280;29616;51.950;8.572;2023-07-31T07:49:44;99345.69;;;16.91;100.00
7441;BME280;29616;51.950;8.572;2023-07-31T07:52:20;99335.50;;;16.98;100.00
7441;BME280;29616;51.950;8.572;2023-07-31T07:54:49;99339.75;;;16.94;100.00
7441;BME280;29616;51.950;8.572;2023-07-31T07:57:18;99345.28;;;16.94;100.00
7441;BME280;29616;51.950;8.572;2023-07-31T07:59:46;99331.66;;;16.93;100.00
7441;BME280;29616;51.950;8.572;2023-07-31T08:02:15;99335.94;;;17.15;100.00
7441;BME280;29616;51.950;8.572;2023-07-31T08:04:44;99311.28;;;17.07;100.00
7441;BME280;29616;51.950;8.572;2023-07-31T08:07:12;99326.59;;;16.96;100.00
7441;BME280;29616;51.950;8.572;2023-07-31T08:09:42;99321.50;;;17.00;100.00
7441;BME280;29616;51.950;8.572;2023-07-31T08:12:11;99314.06;;;17.07;100.00
7441;BME280;29616;51.950;8.572;2023-07-31T08:14:39;99319.78;;;17.32;100.00
7441;BME280;29616;51.950;8.572;2023-07-31T08:17:07;99318.47;;;17.41;100.00
7441;BME280;29616;51.950;8.572;2023-07-31T08:19:36;99312.94;;;17.47;100.00
7441;BME280;29616;51.950;8.572;2023-07-31T08:22:05;99316.75;;;17.46;100.00
7441;BME280;29616;51.950;8.572;2023-07-31T08:24:33;99313.38;;;17.64;100.00
7441;BME280;29616;51.950;8.572;2023-07-31T08:27:05;99312.72;;;17.62;100.00
7441;BME280;29616;51.950;8.572;2023-07-31T08:29:34;99306.13;;;17.70;100.00
7441;BME280;29616;51.950;8.572;2023-07-31T08:32:03;99305.66;;;17.73;100.00
7441;BME280;29616;51.950;8.572;2023-07-31T08:34:32;99305.47;;;17.68;100.00
7441;BME280;29616;51.950;8.572;2023-07-31T08:37:01;99307.84;;;17.64;100.00
7441;BME280;29616;51.950;8.572;2023-07-31T08:39:29;99290.38;;;17.70;100.00
7441;BME280;29616;51.950;8.572;2023-07-31T08:41:58;99266.19;;;17.59;100.00
7441;BME280;29616;51.950;8.572;2023-07-31T08:44:30;99267.34;;;17.89;100.00
7441;BME280;29616;51.950;8.572;2023-07-31T08:47:00;99278.38;;;17.96;100.00
7441;BME280;29616;51.950;8.572;2023-07-31T08:49:29;99270.28;;;17.94;100.00
7441;BME280;29616;51.950;8.572;2023-07-31T08:51:59;99280.53;;;17.87;100.00
7441;BME280;29616;51.950;8.572;2023-07-31T08:54:28;99279.66;;;17.93;100.00
7441;BME280;29616;51.950;8.572;2023-07-31T08:56:59;99279.72;;;17.80;100.00
7441;BME280;29616;51.950;8.572;2023-07-31T08:59:31;99278.22;;;17.84;100.00
7441;BME280;29616;51.950;8.572;2023-07-31T09:02:06;99275.44;;;17.91;100.00
7441;BME280;29616;51.950;8.572;2023-07-31T09:04:36;99287.50;;;17.96;100.00
7441;BME280;29616;51.950;8.572;2023-07-31T09:07:05;99281.44;;;17.75;100.00
7441;BME280;29616;51.950;8.572;2023-07-31T09:09:36;99287.81;;;17.75;100.00
7441;BME280;29616;51.950;8.572;2023-07-31T09:12:06;99286.38;;;17.66;100.00
7441;BME280;29616;51.950;8.572;2023-07-31T09:14:37;99282.28;;;17.75;100.00
7441;BME280;29616;51.950;8.572;2023-07-31T09:17:07;99279.75;;;17.74;100.00
7441;BME280;29616;51.950;8.572;2023-07-31T09:19:36;99271.56;;;17.98;100.00
7441;BME280;29616;51.950;8.572;2023-07-31T09:22:05;99269.72;;;17.79;100.00
7441;BME280;29616;51.950;8.572;2023-07-31T09:24:34;99268.63;;;17.87;100.00
7441;BME280;29616;51.950;8.572;2023-07-31T09:27:05;99269.41;;;18.07;100.00
7441;BME280;29616;51.950;8.572;2023-07-31T09:29:35;99271.88;;;18.15;100.00
7441;BME280;29616;51.950;8.572;2023-07-31T09:32:04;99267.34;;;18.27;100.00
7441;BME280;29616;51.950;8.572;2023-07-31T09:34:37;99264.09;;;18.37;100.00
7441;BME280;29616;51.950;8.572;2023-07-31T09:37:06;99236.59;;;18.10;100.00
7441;BME280;29616;51.950;8.572;2023-07-31T09:39:46;99261.28;;;18.43;100.00
7441;BME280;29616;51.950;8.572;2023-07-31T09:42:26;99240.81;;;18.20;100.00
7441;BME280;29616;51.950;8.572;2023-07-31T09:45:07;99260.13;;;18.26;100.00
7441;BME280;29616;51.950;8.572;2023-07-31T09:47:36;99252.81;;;18.00;100.00
7441;BME280;29616;51.950;8.572;2023-07-31T09:50:08;99254.28;;;18.09;100.00
7441;BME280;29616;51.950;8.572;2023-07-31T09:52:38;99236.94;;;17.89;100.00
7441;BME280;29616;51.950;8.572;2023-07-31T09:55:08;99229.78;;;18.13;100.00
7441;BME280;29616;51.950;8.572;2023-07-31T09:57:39;99247.56;;;18.30;100.00
7441;BME280;29616;51.950;8.572;2023-07-31T10:00:12;99232.19;;;18.34;100.00
7441;BME280;29616;51.950;8.572;2023-07-31T10:02:41;99225.78;;;18.40;100.00
7441;BME280;29616;51.950;8.572;2023-07-31T10:05:14;99246.25;;;18.33;100.00
7441;BME280;29616;51.950;8.572;2023-07-31T10:07:52;99220.25;;;18.09;100.00
7441;BME280;29616;51.950;8.572;2023-07-31T10:10:22;99223.91;;;18.03;100.00
7441;BME280;29616;51.950;8.572;2023-07-31T10:12:52;99231.06;;;18.10;100.00
7441;BME280;29616;51.950;8.572;2023-07-31T10:15:22;99227.25;;;18.11;100.00
7441;BME280;29616;51.950;8.572;2023-07-31T10:17:52;99233.53;;;18.25;100.00
7441;BME280;29616;51.950;8.572;2023-07-31T10:20:24;99237.09;;;18.32;100.00
7441;BME280;29616;51.950;8.572;2023-07-31T10:22:55;99237.22;;;18.50;100.00
7441;BME280;29616;51.950;8.572;2023-07-31T10:25:24;99243.50;;;18.64;100.00
7441;BME280;29616;51.950;8.572;2023-07-31T10:27:54;99237.81;;;18.84;100.00
7441;BME280;29616;51.950;8.572;2023-07-31T10:30:27;99232.88;;;18.61;100.00
7441;BME280;29616;51.950;8.572;2023-07-31T10:32:58;99240.47;;;18.41;100.00
7441;BME280;29616;51.950;8.572;2023-07-31T10:35:28;99235.63;;;18.30;100.00
7441;BME280;29616;51.950;8.572;2023-07-31T10:38:10;99222.06;;;18.22;100.00
7441;BME280;29616;51.950;8.572;2023-07-31T10:40:40;99225.81;;;18.34;100.00
7441;BME280;29616;51.950;8.572;2023-07-31T10:43:09;99239.50;;;18.60;100.00
7441;BME280;29616;51.950;8.572;2023-07-31T10:45:53;99207.47;;;18.39;100.00
7441;BME280;29616;51.950;8.572;2023-07-31T10:48:22;99227.97;;;18.32;100.00
7441;BME280;29616;51.950;8.572;2023-07-31T10:50:54;99220.88;;;18.11;100.00
7441;BME280;29616;51.950;8.572;2023-07-31T10:53:26;99214.31;;;18.05;100.00
7441;BME280;29616;51.950;8.572;2023-07-31T10:55:58;99223.78;;;18.23;100.00
7441;BME280;29616;51.950;8.572;2023-07-31T10:58:27;99214.47;;;18.17;100.00
7441;BME280;29616;51.950;8.572;2023-07-31T11:01:02;99218.06;;;18.17;100.00
7441;BME280;29616;51.950;8.572;2023-07-31T11:03:45;99214.94;;;18.39;100.00
7441;BME280;29616;51.950;8.572;2023-07-31T11:06:15;99207.88;;;18.43;100.00
7441;BME280;29616;51.950;8.572;2023-07-31T11:08:47;99221.25;;;18.46;100.00
7441;BME280;29616;51.950;8.572;2023-07-31T11:11:18;99207.13;;;18.29;100.00
7441;BME280;29616;51.950;8.572;2023-07-31T11:13:50;99205.91;;;18.25;100.00
7441;BME280;29616;51.950;8.572;2023-07-31T11:16:23;99196.59;;;18.13;100.00
7441;BME280;29616;51.950;8.572;2023-07-31T11:18:53;99205.84;;;18.00;100.00
7441;BME280;29616;51.950;8.572;2023-07-31T11:21:24;99203.78;;;17.89;100.00
7441;BME280;29616;51.950;8.572;2023-07-31T11:23:56;99208.16;;;18.03;100.00
7441;BME280;29616;51.950;8.572;2023-07-31T11:26:26;99215.38;;;18.04;100.00
7441;BME280;29616;51.950;8.572;2023-07-31T11:28:55;99209.47;;;17.94;100.00
7441;BME280;29616;51.950;8.572;2023-07-31T11:31:25;99217.66;;;17.83;100.00
7441;BME280;29616;51.950;8.572;2023-07-31T11:34:05;99194.78;;;18.00;100.00
7441;BME280;29616;51.950;8.572;2023-07-31T11:36:33;99205.78;;;18.38;100.00
7441;BME280;29616;51.950;8.572;2023-07-31T11:39:05;99199.34;;;18.51;100.00
7441;BME280;29616;51.950;8.572;2023-07-31T11:41:34;99186.53;;;18.56;100.00
7441;BME280;29616;51.950;8.572;2023-07-31T11:44:02;99182.44;;;18.84;100.00
7441;BME280;29616;51.950;8.572;2023-07-31T11:46:53;99199.91;;;18.84;100.00
7441;BME280;29616;51.950;8.572;2023-07-31T11:49:24;99191.38;;;18.86;100.00
7441;BME280;29616;51.950;8.572;2023-07-31T11:51:54;99167.72;;;18.65;100.00
7441;BME280;29616;51.950;8.572;2023-07-31T11:54:23;99188.09;;;18.70;100.00
7441;BME280;29616;51.950;8.572;2023-07-31T11:56:52;99195.63;;;18.82;100.00
7441;BME280;29616;51.950;8.572;2023-07-31T11:59:21;99182.16;;;18.67;100.00
7441;BME280;29616;51.950;8.572;2023-07-31T12:01:51;99184.25;;;18.71;100.00
7441;BME280;29616;51.950;8.572;2023-07-31T12:04:21;99171.88;;;18.74;100.00
7441;BME280;29616;51.950;8.572;2023-07-31T12:06:49;99183.47;;;18.89;100.00
7441;BME280;29616;51.950;8.572;2023-07-31T12:09:24;99186.72;;;18.80;100.00
7441;BME280;29616;51.950;8.572;2023-07-31T12:11:53;99174.47;;;18.69;100.00
7441;BME280;29616;51.950;8.572;2023-07-31T12:14:24;99195.13;;;18.91;100.00
7441;BME280;29616;51.950;8.572;2023-07-31T12:17:00;99180.75;;;19.01;100.00
7441;BME280;29616;51.950;8.572;2023-07-31T12:19:32;99182.69;;;19.00;100.00
7441;BME280;29616;51.950;8.572;2023-07-31T12:22:01;99186.00;;;19.09;100.00
7441;BME280;29616;51.950;8.572;2023-07-31T12:24:30;99166.91;;;19.19;100.00
7441;BME280;29616;51.950;8.572;2023-07-31T12:26:58;99184.69;;;19.11;100.00
7441;BME280;29616;51.950;8.572;2023-07-31T12:29:34;99184.53;;;19.24;100.00
7441;BME280;29616;51.950;8.572;2023-07-31T12:32:21;99180.47;;;19.27;100.00
7441;BME280;29616;51.950;8.572;2023-07-31T12:34:50;99180.59;;;19.39;100.00
7441;BME280;29616;51.950;8.572;2023-07-31T12:37:20;99175.41;;;19.24;100.00
7441;BME280;29616;51.950;8.572;2023-07-31T12:39:49;99159.16;;;19.09;100.00
7441;BME280;29616;51.950;8.572;2023-07-31T12:42:18;99170.47;;;19.08;100.00
7441;BME280;29616;51.950;8.572;2023-07-31T12:44:46;99177.53;;;18.86;100.00
7441;BME280;29616;51.950;8.572;2023-07-31T12:47:16;99186.13;;;18.96;100.00
7441;BME280;29616;51.950;8.572;2023-07-31T12:49:45;99186.34;;;18.76;100.00
7441;BME280;29616;51.950;8.572;2023-07-31T12:52:15;99182.53;;;18.46;100.00
7441;BME280;29616;51.950;8.572;2023-07-31T12:54:44;99177.66;;;18.48;100.00
7441;BME280;29616;51.950;8.572;2023-07-31T12:57:12;99176.69;;;18.29;100.00
7441;BME280;29616;51.950;8.572;2023-07-31T12:59:41;99175.81;;;18.35;100.00
7441;BME280;29616;51.950;8.572;2023-07-31T13:02:10;99174.00;;;18.23;100.00
7441;BME280;29616;51.950;8.572;2023-07-31T13:04:38;99178.69;;;18.22;100.00
7441;BME280;29616;51.950;8.572;2023-07-31T13:07:11;99173.72;;;17.99;100.00
7441;BME280;29616;51.950;8.572;2023-07-31T13:09:41;99181.47;;;18.15;100.00
7441;BME280;29616;51.950;8.572;2023-07-31T13:12:09;99171.69;;;18.44;100.00
7441;BME280;29616;51.950;8.572;2023-07-31T13:14:38;99173.16;;;19.14;100.00